createdAt,value
2019-05-18T00:02:17.800Z,10.80
2019-05-18T00:04:43.981Z,10.80
2019-05-18T00:07:10.040Z,10.80
2019-05-18T00:09:36.094Z,10.70
2019-05-18T00:12:02.178Z,10.70
2019-05-18T00:14:28.319Z,10.70
2019-05-18T00:16:54.380Z,10.70
2019-05-18T00:19:20.447Z,10.60
2019-05-18T00:21:46.599Z,10.70
2019-05-18T00:24:12.664Z,10.70
2019-05-18T00:26:38.717Z,10.70
2019-05-18T00:29:04.795Z,10.70
2019-05-18T00:31:30.951Z,10.70
2019-05-18T00:33:57.004Z,10.70
2019-05-18T00:36:23.060Z,10.70
2019-05-18T00:38:49.117Z,10.70
2019-05-18T00:41:15.175Z,10.80
2019-05-18T00:43:41.227Z,10.90
2019-05-18T00:46:07.292Z,10.90
2019-05-18T00:48:33.496Z,10.90
2019-05-18T00:50:59.573Z,11.00
2019-05-18T00:53:25.857Z,11.00
2019-05-18T00:55:51.911Z,11.00
2019-05-18T00:58:17.986Z,11.00
2019-05-18T01:00:44.157Z,11.00
2019-05-18T01:03:10.308Z,11.00
2019-05-18T01:05:38.193Z,11.00
2019-05-18T01:08:04.380Z,11.00
2019-05-18T01:10:30.459Z,11.00
2019-05-18T01:12:56.512Z,11.00
2019-05-18T01:15:22.769Z,10.90
2019-05-18T01:17:57.052Z,10.90
2019-05-18T01:20:17.088Z,10.90
2019-05-18T01:22:43.153Z,10.90
2019-05-18T01:25:09.901Z,10.90
2019-05-18T01:27:35.965Z,10.90
2019-05-18T01:30:04.454Z,10.90
2019-05-18T01:32:30.568Z,10.90
2019-05-18T01:34:56.640Z,10.90
2019-05-18T01:37:22.792Z,10.90
2019-05-18T01:39:48.856Z,10.90
2019-05-18T01:42:14.913Z,10.80
2019-05-18T01:44:41.002Z,10.80
2019-05-18T01:47:07.050Z,10.70
2019-05-18T01:49:33.200Z,10.70
2019-05-18T01:51:59.256Z,10.60
2019-05-18T01:56:52.508Z,10.50
2019-05-18T01:59:18.559Z,10.40
2019-05-18T02:01:44.654Z,10.40
2019-05-18T02:04:10.708Z,10.30
2019-05-18T02:06:36.760Z,10.20
2019-05-18T02:09:06.140Z,10.20
2019-05-18T02:11:32.183Z,10.20
2019-05-18T02:13:58.240Z,10.20
2019-05-18T02:16:24.363Z,10.20
2019-05-18T02:18:50.420Z,10.20
2019-05-18T02:21:16.472Z,10.30
2019-05-18T02:23:42.561Z,10.40
2019-05-18T02:26:08.613Z,10.40
2019-05-18T02:28:34.659Z,10.50
2019-05-18T02:31:00.711Z,10.60
2019-05-18T02:33:26.863Z,10.60
2019-05-18T02:35:52.945Z,10.70
2019-05-18T02:38:19.279Z,10.80
2019-05-18T02:40:46.848Z,10.80
2019-05-18T02:43:14.230Z,10.80
2019-05-18T02:45:40.393Z,10.80
2019-05-18T02:48:06.553Z,10.80
2019-05-18T02:50:32.604Z,10.70
2019-05-18T02:52:58.664Z,10.70
2019-05-18T02:55:24.861Z,10.60
2019-05-18T02:57:51.017Z,10.50
2019-05-18T03:00:17.319Z,10.50
2019-05-18T03:02:43.376Z,10.40
2019-05-18T03:05:09.755Z,10.30
2019-05-18T03:07:35.828Z,10.30
2019-05-18T03:10:04.477Z,10.20
2019-05-18T03:12:30.533Z,10.10
2019-05-18T03:14:56.621Z,10.10
2019-05-18T03:17:23.388Z,10.00
2019-05-18T03:19:49.464Z,10.00
2019-05-18T03:22:15.519Z,9.90
2019-05-18T03:24:41.573Z,9.90
2019-05-18T03:27:07.755Z,9.80
2019-05-18T03:29:33.804Z,9.80
2019-05-18T03:31:59.853Z,9.80
2019-05-18T03:34:25.979Z,9.70
2019-05-18T03:36:52.189Z,9.70
2019-05-18T03:39:18.240Z,9.70
2019-05-18T03:41:44.294Z,9.70
2019-05-18T03:44:10.516Z,9.70
2019-05-18T03:46:37.167Z,9.70
2019-05-18T03:49:03.344Z,9.70
2019-05-18T03:51:29.486Z,9.70
2019-05-18T03:53:55.537Z,9.80
2019-05-18T03:56:21.605Z,9.80
2019-05-18T03:58:47.657Z,9.80
2019-05-18T04:01:13.707Z,9.80
2019-05-18T04:03:39.800Z,9.90
2019-05-18T04:06:05.878Z,9.90
2019-05-18T04:08:32.486Z,9.90
2019-05-18T04:10:58.635Z,10.00
2019-05-18T04:13:24.777Z,10.00
2019-05-18T04:15:50.848Z,10.10
2019-05-18T04:18:16.899Z,10.20
2019-05-18T04:20:42.947Z,10.30
2019-05-18T04:23:09.020Z,10.40
2019-05-18T04:25:35.069Z,10.50
2019-05-18T04:28:01.184Z,10.60
2019-05-18T04:30:27.235Z,10.70
2019-05-18T04:32:53.305Z,10.80
2019-05-18T04:35:19.360Z,10.90
2019-05-18T04:37:45.428Z,11.00
2019-05-18T04:40:11.888Z,11.10
2019-05-18T04:42:37.956Z,11.20
2019-05-18T04:45:06.348Z,11.30
2019-05-18T04:47:32.512Z,11.30
2019-05-18T04:50:05.271Z,11.50
2019-05-18T04:52:26.668Z,11.70
2019-05-18T04:54:52.773Z,11.80
2019-05-18T04:57:18.921Z,11.90
2019-05-18T04:59:44.975Z,12.00
2019-05-18T05:04:37.607Z,12.20
2019-05-18T05:07:03.664Z,12.30
2019-05-18T05:09:29.719Z,12.50
2019-05-18T05:11:55.819Z,12.60
2019-05-18T05:14:21.867Z,12.80
2019-05-18T05:16:47.955Z,13.00
2019-05-18T05:19:14.007Z,13.20
2019-05-18T05:21:40.062Z,13.50
2019-05-18T05:24:06.241Z,13.70
2019-05-18T05:26:32.348Z,13.90
2019-05-18T05:28:58.552Z,14.00
2019-05-18T05:31:24.731Z,14.20
2019-05-18T05:33:50.785Z,14.30
2019-05-18T05:36:16.849Z,14.60
2019-05-18T05:38:42.919Z,15.00
2019-05-18T05:41:09.021Z,15.30
2019-05-18T05:43:35.156Z,15.50
2019-05-18T05:46:01.235Z,15.50
2019-05-18T05:48:27.296Z,15.60
2019-05-18T05:50:53.472Z,15.90
2019-05-18T05:53:19.523Z,16.20
2019-05-18T05:55:45.629Z,16.60
2019-05-18T05:58:11.684Z,17.00
2019-05-18T06:00:37.740Z,17.10
2019-05-18T06:03:03.819Z,17.40
2019-05-18T06:05:29.907Z,17.80
2019-05-18T06:07:55.970Z,18.00
2019-05-18T06:10:22.031Z,18.20
2019-05-18T06:12:48.096Z,18.30
2019-05-18T06:15:14.457Z,18.30
2019-05-18T06:17:40.511Z,18.10
2019-05-18T06:20:08.575Z,17.90
2019-05-18T06:22:34.635Z,17.80
2019-05-18T06:25:00.722Z,17.60
2019-05-18T06:27:26.868Z,17.50
2019-05-18T06:29:52.993Z,17.30
2019-05-18T06:32:19.133Z,17.20
2019-05-18T06:34:45.179Z,17.10
2019-05-18T06:37:11.235Z,17.10
2019-05-18T06:39:37.381Z,17.00
2019-05-18T06:42:03.592Z,17.00
2019-05-18T06:44:29.755Z,16.90
2019-05-18T06:46:55.861Z,16.80
2019-05-18T06:49:21.916Z,16.70
2019-05-18T06:51:47.995Z,16.80
2019-05-18T06:54:14.083Z,16.70
2019-05-18T06:56:41.145Z,16.80
2019-05-18T06:59:07.392Z,16.90
2019-05-18T07:01:33.578Z,17.00
2019-05-18T07:03:59.660Z,17.10
2019-05-18T07:06:26.237Z,17.20
2019-05-18T07:08:52.372Z,17.20
2019-05-18T07:11:18.505Z,17.30
2019-05-18T07:13:44.574Z,17.30
2019-05-18T07:16:10.622Z,17.30
2019-05-18T07:18:36.672Z,17.30
2019-05-18T07:21:02.836Z,17.30
2019-05-18T07:23:28.984Z,18.00
2019-05-18T07:25:55.076Z,17.40
2019-05-18T07:28:21.155Z,17.50
2019-05-18T07:30:47.200Z,17.60
2019-05-18T07:33:13.247Z,17.70
2019-05-18T07:35:39.313Z,17.70
2019-05-18T07:38:05.496Z,17.80
2019-05-18T07:40:31.582Z,17.80
2019-05-18T07:42:57.728Z,17.90
2019-05-18T07:45:23.783Z,18.00
2019-05-18T07:47:49.875Z,18.10
2019-05-18T07:50:16.024Z,18.10
2019-05-18T07:52:42.082Z,18.10
2019-05-18T07:55:08.647Z,18.10
2019-05-18T07:57:34.707Z,18.10
2019-05-18T08:00:00.839Z,18.10
2019-05-18T08:02:26.988Z,18.10
2019-05-18T08:04:53.223Z,18.20
2019-05-18T08:07:19.296Z,18.20
2019-05-18T08:09:45.374Z,18.30
2019-05-18T08:12:11.556Z,18.30
2019-05-18T08:14:37.720Z,18.40
2019-05-18T08:17:03.768Z,18.50
2019-05-18T08:19:29.820Z,18.60
2019-05-18T08:21:55.880Z,18.70
2019-05-18T08:24:22.040Z,18.80
2019-05-18T08:26:48.119Z,19.00
2019-05-18T08:29:14.168Z,19.10
2019-05-18T08:31:40.243Z,19.30
2019-05-18T08:34:06.400Z,19.50
2019-05-18T08:36:32.484Z,19.70
2019-05-18T08:38:58.635Z,19.90
2019-05-18T08:41:24.691Z,20.00
2019-05-18T08:43:50.752Z,20.20
2019-05-18T08:46:16.852Z,20.30
2019-05-18T08:48:42.931Z,20.40
2019-05-18T08:51:09.022Z,20.50
2019-05-18T08:53:35.160Z,20.60
2019-05-18T08:56:01.220Z,20.70
2019-05-18T08:58:27.291Z,20.80
2019-05-18T09:00:53.478Z,21.00
2019-05-18T09:03:19.527Z,21.10
2019-05-18T09:05:45.587Z,21.10
2019-05-18T09:08:12.148Z,21.30
2019-05-18T09:10:38.204Z,21.50
2019-05-18T09:13:04.263Z,21.80
2019-05-18T09:15:30.314Z,21.90
2019-05-18T09:17:56.380Z,22.00
2019-05-18T09:20:22.459Z,22.10
2019-05-18T09:22:48.639Z,22.20
2019-05-18T09:25:14.910Z,22.30
2019-05-18T09:27:41.424Z,22.50
2019-05-18T09:30:09.407Z,22.80
2019-05-18T09:32:35.679Z,22.90
2019-05-18T09:35:03.884Z,22.90
2019-05-18T09:37:29.939Z,22.80
2019-05-18T09:39:55.995Z,22.70
2019-05-18T09:42:22.060Z,22.80
2019-05-18T09:44:48.115Z,22.90
2019-05-18T09:47:14.175Z,23.10
2019-05-18T09:49:40.232Z,23.30
2019-05-18T09:52:06.278Z,23.30
2019-05-18T09:54:32.364Z,23.20
2019-05-18T09:56:58.508Z,23.20
2019-05-18T09:59:24.619Z,23.00
2019-05-18T10:01:50.680Z,23.00
2019-05-18T10:04:16.744Z,23.20
2019-05-18T10:06:42.807Z,23.30
2019-05-18T10:09:08.893Z,23.60
2019-05-18T10:11:38.462Z,24.00
2019-05-18T10:14:03.423Z,24.40
2019-05-18T10:16:29.475Z,24.70
2019-05-18T10:18:55.611Z,24.90
2019-05-18T10:21:21.697Z,25.10
2019-05-18T10:23:47.904Z,25.10
2019-05-18T10:26:13.979Z,25.10
2019-05-18T10:28:40.072Z,24.90
2019-05-18T10:31:06.135Z,24.70
2019-05-18T10:33:32.191Z,24.60
2019-05-18T10:35:58.252Z,24.40
2019-05-18T10:38:24.291Z,24.40
2019-05-18T10:40:50.416Z,24.30
2019-05-18T10:43:16.587Z,24.20
2019-05-18T10:45:44.989Z,24.00
2019-05-18T10:48:10.753Z,24.00
2019-05-18T10:50:36.939Z,23.90
2019-05-18T10:53:02.997Z,24.00
2019-05-18T10:55:29.070Z,23.80
2019-05-18T11:01:18.777Z,24.00
2019-05-18T11:03:44.891Z,24.30
2019-05-18T11:06:10.939Z,24.30
2019-05-18T11:08:38.505Z,24.40
2019-05-18T11:11:04.955Z,24.50
2019-05-18T11:13:31.049Z,24.50
2019-05-18T11:15:57.228Z,24.40
2019-05-18T11:18:23.389Z,24.40
2019-05-18T11:20:49.500Z,24.40
2019-05-18T11:23:15.556Z,24.30
2019-05-18T11:25:41.617Z,24.20
2019-05-18T11:28:07.670Z,24.10
2019-05-18T11:30:33.760Z,24.00
2019-05-18T11:32:59.829Z,23.90
2019-05-18T11:35:26.184Z,23.80
2019-05-18T11:37:52.256Z,23.80
2019-05-18T11:40:18.707Z,23.80
2019-05-18T11:42:44.777Z,23.80
2019-05-18T11:45:12.260Z,23.70
2019-05-18T11:47:38.712Z,23.60
2019-05-18T11:50:07.345Z,23.50
2019-05-18T11:52:33.491Z,23.50
2019-05-18T11:54:59.571Z,23.40
2019-05-18T11:57:26.027Z,23.40
2019-05-18T11:59:52.160Z,23.50
2019-05-18T12:02:18.219Z,23.80
2019-05-18T12:04:44.295Z,24.00
2019-05-18T12:07:10.469Z,24.30
2019-05-18T12:09:36.563Z,24.30
2019-05-18T12:12:02.934Z,24.20
2019-05-18T12:14:29.028Z,24.10
2019-05-18T12:16:55.193Z,24.00
2019-05-18T12:19:21.249Z,24.00
2019-05-18T12:21:47.298Z,24.20
2019-05-18T12:24:15.823Z,26.90
2019-05-18T12:26:41.372Z,24.60
2019-05-18T12:29:07.523Z,24.80
2019-05-18T12:31:33.659Z,24.20
2019-05-18T12:33:59.720Z,25.20
2019-05-18T12:36:25.780Z,25.20
2019-05-18T12:38:51.841Z,25.40
2019-05-18T12:41:19.804Z,25.70
2019-05-18T12:43:45.891Z,25.70
2019-05-18T12:46:11.948Z,25.90
2019-05-18T12:48:38.000Z,25.90
2019-05-18T12:51:04.099Z,26.00
2019-05-18T12:53:30.154Z,26.00
2019-05-18T12:55:56.207Z,26.00
2019-05-18T12:58:22.263Z,25.90
2019-05-18T13:00:48.324Z,26.00
2019-05-18T13:03:14.492Z,26.00
2019-05-18T13:05:40.743Z,26.10
2019-05-18T13:09:47.020Z,26.20
2019-05-18T13:12:13.091Z,26.40
2019-05-18T13:14:39.174Z,26.50
2019-05-18T13:17:05.447Z,26.30
2019-05-18T13:19:31.615Z,26.20
2019-05-18T13:21:57.664Z,26.00
2019-05-18T13:24:23.907Z,25.70
2019-05-18T13:26:49.963Z,25.50
2019-05-18T13:29:16.109Z,25.40
2019-05-18T13:31:42.203Z,25.40
2019-05-18T13:34:08.316Z,25.40
2019-05-18T13:36:34.480Z,25.40
2019-05-18T13:39:00.557Z,25.40
2019-05-18T13:41:26.641Z,25.40
2019-05-18T13:43:52.752Z,25.30
2019-05-18T13:46:18.834Z,25.40
2019-05-18T13:48:44.888Z,25.50
2019-05-18T13:51:11.670Z,25.60
2019-05-18T13:53:37.866Z,25.70
2019-05-18T13:56:03.921Z,25.80
2019-05-18T13:58:30.427Z,25.90
2019-05-18T14:00:56.599Z,26.00
2019-05-18T14:03:22.772Z,26.10
2019-05-18T14:05:48.884Z,26.10
2019-05-18T14:08:15.985Z,26.20
2019-05-18T14:10:42.348Z,26.20
2019-05-18T14:13:08.426Z,26.30
2019-05-18T14:15:34.483Z,26.40
2019-05-18T14:18:00.571Z,26.40
2019-05-18T14:20:26.681Z,26.30
2019-05-18T14:22:52.785Z,26.10
2019-05-18T14:25:20.176Z,26.00
2019-05-18T14:27:46.508Z,26.00
2019-05-18T14:30:13.172Z,25.90
2019-05-18T14:32:39.653Z,25.90
2019-05-18T14:35:06.508Z,25.90
2019-05-18T14:37:32.770Z,26.00
2019-05-18T14:39:58.840Z,25.90
2019-05-18T14:42:24.956Z,25.90
2019-05-18T14:44:51.087Z,25.90
2019-05-18T14:47:17.142Z,25.90
2019-05-18T14:49:43.204Z,25.90
2019-05-18T14:52:11.997Z,26.00
2019-05-18T14:54:37.287Z,26.10
2019-05-18T14:57:03.512Z,26.20
2019-05-18T14:59:29.564Z,26.30
2019-05-18T15:01:55.659Z,26.30
2019-05-18T15:04:21.816Z,26.30
2019-05-18T15:06:47.867Z,26.30
2019-05-18T15:09:13.939Z,26.30
2019-05-18T15:11:40.005Z,26.30
2019-05-18T15:14:06.094Z,26.20
2019-05-18T15:16:32.202Z,25.90
2019-05-18T15:18:58.295Z,25.50
2019-05-18T15:21:24.407Z,25.20
2019-05-18T15:23:50.603Z,24.90
2019-05-18T15:26:16.776Z,24.70
2019-05-18T15:28:42.871Z,24.40
2019-05-18T15:31:09.023Z,24.30
2019-05-18T15:33:35.088Z,24.00
2019-05-18T15:36:01.453Z,23.70
2019-05-18T15:38:27.604Z,23.50
2019-05-18T15:40:53.797Z,23.30
2019-05-18T15:43:19.936Z,23.20
2019-05-18T15:45:45.994Z,23.20
2019-05-18T15:48:12.106Z,23.30
2019-05-18T15:50:38.246Z,23.60
2019-05-18T15:53:04.303Z,23.70
2019-05-18T15:55:30.407Z,23.60
2019-05-18T15:57:56.479Z,23.60
2019-05-18T16:00:22.641Z,23.60
2019-05-18T16:02:48.694Z,23.50
2019-05-18T16:05:15.361Z,23.40
2019-05-18T16:07:41.412Z,23.20
2019-05-18T16:10:09.032Z,23.10
2019-05-18T16:12:35.084Z,23.00
2019-05-18T16:15:01.179Z,22.80
2019-05-18T16:17:39.046Z,22.60
2019-05-18T16:19:55.212Z,22.40
2019-05-18T16:22:21.281Z,22.30
2019-05-18T16:24:47.339Z,22.20
2019-05-18T16:27:13.480Z,22.10
2019-05-18T16:29:39.588Z,22.00
2019-05-18T16:32:05.744Z,21.90
2019-05-18T16:34:31.800Z,21.90
2019-05-18T16:37:00.759Z,21.90
2019-05-18T16:39:25.876Z,21.90
2019-05-18T16:41:51.995Z,21.90
2019-05-18T16:44:18.095Z,22.00
2019-05-18T16:46:44.264Z,22.20
2019-05-18T16:49:10.402Z,22.20
2019-05-18T16:51:36.477Z,22.30
2019-05-18T16:54:02.708Z,22.30
2019-05-18T16:56:35.101Z,22.60
2019-05-18T16:58:56.854Z,22.60
2019-05-18T17:01:23.003Z,22.70
2019-05-18T17:03:49.079Z,22.90
2019-05-18T17:06:16.486Z,23.10
2019-05-18T17:08:42.934Z,23.20
2019-05-18T17:11:09.129Z,23.20
2019-05-18T17:13:35.184Z,23.20
2019-05-18T17:16:02.127Z,23.10
2019-05-18T17:18:28.184Z,23.00
2019-05-18T17:20:54.250Z,22.90
2019-05-18T17:23:20.555Z,22.90
2019-05-18T17:25:46.738Z,22.60
2019-05-18T17:28:12.847Z,22.40
2019-05-18T17:30:42.445Z,22.30
2019-05-18T17:33:06.988Z,22.30
2019-05-18T17:35:33.187Z,22.10
2019-05-18T17:37:59.400Z,22.00
2019-05-18T17:40:25.654Z,22.00
2019-05-18T17:42:51.840Z,22.10
2019-05-18T17:45:18.009Z,22.10
2019-05-18T17:47:44.111Z,22.10
2019-05-18T17:50:12.585Z,22.10
2019-05-18T17:52:38.849Z,22.40
2019-05-18T17:55:05.719Z,21.90
2019-05-18T17:57:31.884Z,21.80
2019-05-18T17:59:58.025Z,21.70
2019-05-18T18:02:24.095Z,21.60
2019-05-18T18:04:50.267Z,21.50
2019-05-18T18:07:16.359Z,21.40
2019-05-18T18:09:42.539Z,21.30
2019-05-18T18:12:08.589Z,21.30
2019-05-18T18:14:34.670Z,21.40
2019-05-18T18:17:00.783Z,21.40
2019-05-18T18:19:26.985Z,21.30
2019-05-18T18:21:53.088Z,21.20
2019-05-18T18:24:19.148Z,21.10
2019-05-18T18:26:45.235Z,20.90
2019-05-18T18:29:11.279Z,20.80
2019-05-18T18:31:37.360Z,20.60
2019-05-18T18:34:03.438Z,20.60
2019-05-18T18:36:29.577Z,20.40
2019-05-18T18:38:55.632Z,20.30
2019-05-18T18:41:21.709Z,20.10
2019-05-18T18:43:47.872Z,19.90
2019-05-18T18:46:13.928Z,19.80
2019-05-18T18:48:40.012Z,19.70
2019-05-18T18:51:06.070Z,19.60
2019-05-18T18:53:32.773Z,19.50
2019-05-18T18:55:59.029Z,19.40
2019-05-18T18:58:25.200Z,19.30
2019-05-18T19:00:54.738Z,19.20
2019-05-18T19:03:20.870Z,19.10
2019-05-18T19:05:47.092Z,19.00
2019-05-18T19:08:13.145Z,18.90
2019-05-18T19:10:39.211Z,18.80
2019-05-18T19:13:05.272Z,18.70
2019-05-18T19:15:31.331Z,18.60
2019-05-18T19:17:57.406Z,18.50
2019-05-18T19:20:23.447Z,18.40
2019-05-18T19:22:49.558Z,18.30
2019-05-18T19:25:16.189Z,18.20
2019-05-18T19:27:54.048Z,18.10
2019-05-18T19:30:10.541Z,18.10
2019-05-18T19:32:36.604Z,18.00
2019-05-18T19:35:07.006Z,17.80
2019-05-18T19:37:33.088Z,17.80
2019-05-18T19:39:59.262Z,17.70
2019-05-18T19:42:25.510Z,17.50
2019-05-18T19:44:51.670Z,17.50
2019-05-18T19:47:17.728Z,17.50
2019-05-18T19:49:43.824Z,17.40
2019-05-18T19:52:09.881Z,17.30
2019-05-18T19:54:35.963Z,17.30
2019-05-18T19:57:02.124Z,17.20
2019-05-18T19:59:28.336Z,17.20
2019-05-18T20:01:54.515Z,17.10
2019-05-18T20:04:20.664Z,17.10
2019-05-18T20:06:46.779Z,17.10
2019-05-18T20:09:12.911Z,17.00
2019-05-18T20:11:38.980Z,17.00
2019-05-18T20:14:05.036Z,16.90
2019-05-18T20:16:31.096Z,16.90
2019-05-18T20:18:57.173Z,16.80
2019-05-18T20:21:23.223Z,16.70
2019-05-18T20:23:49.426Z,16.70
2019-05-18T20:26:15.481Z,16.60
2019-05-18T20:28:41.651Z,16.50
2019-05-18T20:31:07.823Z,16.40
2019-05-18T20:33:34.038Z,16.30
2019-05-18T20:36:00.209Z,16.20
2019-05-18T20:38:26.263Z,16.10
2019-05-18T20:40:52.319Z,16.00
2019-05-18T20:43:18.384Z,15.90
2019-05-18T20:45:44.604Z,15.90
2019-05-18T20:48:10.651Z,15.70
2019-05-18T20:50:36.716Z,15.70
2019-05-18T20:53:02.884Z,15.60
2019-05-18T20:55:28.951Z,15.50
2019-05-18T20:57:55.101Z,15.40
2019-05-18T21:00:21.209Z,15.40
2019-05-18T21:02:47.396Z,15.30
2019-05-18T21:05:13.547Z,15.20
2019-05-18T21:07:39.619Z,15.10
2019-05-18T21:10:06.217Z,15.10
2019-05-18T21:12:32.396Z,14.90
2019-05-18T21:14:58.448Z,14.90
2019-05-18T21:17:24.547Z,14.80
2019-05-18T21:19:50.638Z,14.70
2019-05-18T21:22:16.776Z,14.60
2019-05-18T21:24:42.849Z,14.60
2019-05-18T21:27:09.005Z,14.50
2019-05-18T21:29:35.072Z,14.40
2019-05-18T21:32:01.151Z,14.40
2019-05-18T21:34:27.204Z,14.30
2019-05-18T21:36:53.376Z,14.30
2019-05-18T21:39:19.448Z,14.20
2019-05-18T21:41:45.500Z,14.10
2019-05-18T21:44:11.557Z,14.00
2019-05-18T21:46:39.182Z,14.00
2019-05-18T21:49:05.492Z,14.00
2019-05-18T21:51:31.552Z,13.90
2019-05-18T21:53:57.699Z,13.90
2019-05-18T21:56:23.756Z,13.80
2019-05-18T21:58:49.858Z,13.80
2019-05-18T22:01:16.037Z,13.70
2019-05-18T22:03:44.807Z,13.70
2019-05-18T22:06:10.172Z,13.60
2019-05-18T22:08:36.317Z,13.60
2019-05-18T22:11:02.786Z,13.50
2019-05-18T22:13:28.848Z,13.50
2019-05-18T22:15:55.004Z,13.40
2019-05-18T22:18:24.569Z,13.40
2019-05-18T22:20:49.138Z,13.40
2019-05-18T22:23:15.189Z,13.30
2019-05-18T22:25:41.307Z,13.30
2019-05-18T22:28:07.444Z,13.20
2019-05-18T22:30:33.719Z,13.20
2019-05-18T22:32:59.779Z,13.20
2019-05-18T22:35:25.931Z,13.10
2019-05-18T22:37:52.139Z,13.10
2019-05-18T22:40:18.527Z,13.00
2019-05-18T22:42:44.576Z,13.00
2019-05-18T22:45:10.972Z,12.90
2019-05-18T22:47:38.568Z,12.90
2019-05-18T22:50:05.700Z,12.80
2019-05-18T22:52:31.755Z,13.90
2019-05-18T22:54:57.812Z,12.80
2019-05-18T22:57:24.287Z,12.70
2019-05-18T22:59:50.439Z,12.70
2019-05-18T23:02:16.495Z,12.60
2019-05-18T23:04:42.548Z,12.60
2019-05-18T23:07:08.608Z,12.50
2019-05-18T23:09:34.659Z,12.50
2019-05-18T23:12:00.717Z,12.50
2019-05-18T23:14:26.773Z,12.40
2019-05-18T23:16:52.975Z,12.40
2019-05-18T23:19:19.040Z,12.30
2019-05-18T23:21:45.099Z,12.30
2019-05-18T23:24:11.174Z,12.20
2019-05-18T23:26:37.316Z,12.20
2019-05-18T23:29:03.456Z,12.20
2019-05-18T23:31:29.597Z,12.10
2019-05-18T23:33:55.659Z,12.10
2019-05-18T23:36:21.730Z,12.00
2019-05-18T23:38:47.880Z,12.10
2019-05-18T23:41:13.939Z,12.00
2019-05-18T23:43:39.987Z,12.10
2019-05-18T23:46:06.053Z,12.00
2019-05-18T23:48:32.398Z,12.00
2019-05-18T23:50:58.488Z,12.00
2019-05-18T23:53:24.539Z,12.00
2019-05-18T23:55:50.601Z,11.90
2019-05-18T23:58:16.660Z,11.90
